createdAt,value
2017-09-16T00:00:23.893Z,74.22
2017-09-16T00:01:21.197Z,74.26
2017-09-16T00:02:18.501Z,74.26
2017-09-16T00:03:15.770Z,74.29
2017-09-16T00:04:13.165Z,74.32
2017-09-16T00:05:10.409Z,74.34
2017-09-16T00:06:07.697Z,74.37
2017-09-16T00:07:04.992Z,74.39
2017-09-16T00:08:02.338Z,74.41
2017-09-16T00:08:59.582Z,74.44
2017-09-16T00:09:56.897Z,74.46
2017-09-16T00:10:54.186Z,74.48
2017-09-16T00:11:51.456Z,74.50
2017-09-16T00:12:48.751Z,74.53
2017-09-16T00:13:46.028Z,74.56
2017-09-16T00:14:43.276Z,74.61
2017-09-16T00:15:40.589Z,74.63
2017-09-16T00:16:37.886Z,74.68
2017-09-16T00:17:35.187Z,74.70
2017-09-16T00:18:32.430Z,74.71
2017-09-16T00:19:29.713Z,74.76
2017-09-16T00:20:26.955Z,74.78
2017-09-16T00:21:24.219Z,74.79
2017-09-16T00:22:21.511Z,74.82
2017-09-16T00:23:18.793Z,74.86
2017-09-16T00:24:16.074Z,74.86
2017-09-16T00:25:13.382Z,74.90
2017-09-16T00:26:10.643Z,74.92
2017-09-16T00:27:08.006Z,74.96
2017-09-16T00:28:05.247Z,74.98
2017-09-16T00:29:02.521Z,75.03
2017-09-16T00:29:59.784Z,75.05
2017-09-16T00:30:57.085Z,75.07
2017-09-16T00:31:54.358Z,75.08
2017-09-16T00:32:51.650Z,75.13
2017-09-16T00:33:48.938Z,75.15
2017-09-16T00:34:46.223Z,75.17
2017-09-16T00:35:43.483Z,75.19
2017-09-16T00:36:40.778Z,75.23
2017-09-16T00:37:38.025Z,75.24
2017-09-16T00:38:35.380Z,75.30
2017-09-16T00:39:32.714Z,75.35
2017-09-16T00:40:30.014Z,75.33
2017-09-16T00:41:27.314Z,75.36
2017-09-16T00:42:24.597Z,75.41
2017-09-16T00:43:21.865Z,75.47
2017-09-16T00:44:19.145Z,75.49
2017-09-16T00:45:16.465Z,75.49
2017-09-16T00:46:13.742Z,75.53
2017-09-16T00:47:11.017Z,75.55
2017-09-16T00:48:08.277Z,75.55
2017-09-16T00:49:05.786Z,75.57
2017-09-16T00:50:03.117Z,75.61
2017-09-16T00:51:00.377Z,75.63
2017-09-16T00:51:57.633Z,75.66
2017-09-16T00:52:54.904Z,75.71
2017-09-16T00:53:52.180Z,75.72
2017-09-16T00:54:49.514Z,75.76
2017-09-16T00:55:46.805Z,75.78
2017-09-16T00:56:44.047Z,75.80
2017-09-16T00:57:41.314Z,75.82
2017-09-16T00:58:38.558Z,75.86
2017-09-16T00:59:35.842Z,75.89
2017-09-16T01:00:33.105Z,75.92
2017-09-16T01:01:30.386Z,75.94
2017-09-16T01:02:27.646Z,75.98
2017-09-16T01:03:24.926Z,75.98
2017-09-16T01:04:22.215Z,75.98
2017-09-16T01:05:19.496Z,75.98
2017-09-16T01:06:16.769Z,75.96
2017-09-16T01:07:14.022Z,75.98
2017-09-16T01:08:11.247Z,75.96
2017-09-16T01:09:08.519Z,75.97
2017-09-16T01:10:05.846Z,75.99
2017-09-16T01:11:03.130Z,76.01
2017-09-16T01:12:00.397Z,76.03
2017-09-16T01:12:57.719Z,76.06
2017-09-16T01:13:54.954Z,76.08
2017-09-16T01:14:52.253Z,76.09
2017-09-16T01:15:49.529Z,76.15
2017-09-16T01:16:46.806Z,76.17
2017-09-16T01:17:44.071Z,76.21
2017-09-16T01:18:41.353Z,76.24
2017-09-16T01:19:38.604Z,76.29
2017-09-16T01:20:35.916Z,76.33
2017-09-16T01:21:33.251Z,76.36
2017-09-16T01:22:30.528Z,76.38
2017-09-16T01:23:27.755Z,76.43
2017-09-16T01:24:25.019Z,76.47
2017-09-16T01:25:22.278Z,76.51
2017-09-16T01:26:19.554Z,76.56
2017-09-16T01:27:16.832Z,76.58
2017-09-16T01:28:14.165Z,76.61
2017-09-16T01:29:11.469Z,76.66
2017-09-16T01:30:08.801Z,76.71
2017-09-16T01:31:06.065Z,76.76
2017-09-16T01:32:03.371Z,76.79
2017-09-16T01:33:00.670Z,76.82
2017-09-16T01:33:57.941Z,76.83
2017-09-16T01:34:55.246Z,76.87
2017-09-16T01:35:52.573Z,76.91
2017-09-16T01:36:49.867Z,76.95
2017-09-16T01:37:47.214Z,76.97
2017-09-16T01:38:44.458Z,77.00
2017-09-16T01:39:41.827Z,77.02
2017-09-16T01:40:39.143Z,77.05
2017-09-16T01:41:36.455Z,77.07
2017-09-16T01:42:33.743Z,77.11
2017-09-16T01:43:31.031Z,77.14
2017-09-16T01:44:28.321Z,77.17
2017-09-16T01:45:25.658Z,77.19
2017-09-16T01:46:22.935Z,77.20
2017-09-16T01:47:20.234Z,77.23
2017-09-16T01:48:17.509Z,77.25
2017-09-16T01:49:14.796Z,77.28
2017-09-16T01:50:12.040Z,77.31
2017-09-16T01:51:09.317Z,77.31
2017-09-16T01:52:06.618Z,77.34
2017-09-16T01:53:04.006Z,77.37
2017-09-16T01:54:01.316Z,77.42
2017-09-16T01:54:58.637Z,77.43
2017-09-16T01:55:55.953Z,77.44
2017-09-16T01:56:53.276Z,77.47
2017-09-16T01:57:50.541Z,77.50
2017-09-16T01:58:47.822Z,77.51
2017-09-16T01:59:45.081Z,77.55
2017-09-16T02:00:42.427Z,77.57
2017-09-16T02:01:39.730Z,77.58
2017-09-16T02:02:37.033Z,77.60
2017-09-16T02:03:34.307Z,77.59
2017-09-16T02:04:31.621Z,77.64
2017-09-16T02:05:28.945Z,77.66
2017-09-16T02:06:26.230Z,77.68
2017-09-16T02:07:23.478Z,77.70
2017-09-16T02:08:20.769Z,77.75
2017-09-16T02:09:18.041Z,77.74
2017-09-16T02:10:15.412Z,77.76
2017-09-16T02:11:12.692Z,77.81
2017-09-16T02:12:09.960Z,77.84
2017-09-16T02:13:07.223Z,77.87
2017-09-16T02:14:04.514Z,77.88
2017-09-16T02:15:01.799Z,77.91
2017-09-16T02:15:59.138Z,77.94
2017-09-16T02:16:56.412Z,77.94
2017-09-16T02:17:53.697Z,77.97
2017-09-16T02:18:50.959Z,77.98
2017-09-16T02:19:48.231Z,77.99
2017-09-16T02:20:45.508Z,78.04
2017-09-16T02:21:42.795Z,78.07
2017-09-16T02:22:40.062Z,78.07
2017-09-16T02:23:37.341Z,78.08
2017-09-16T02:24:34.612Z,78.10
2017-09-16T02:25:31.926Z,78.13
2017-09-16T02:26:29.223Z,78.16
2017-09-16T02:27:26.558Z,78.17
2017-09-16T02:28:23.866Z,78.22
2017-09-16T02:29:21.162Z,78.25
2017-09-16T02:30:18.434Z,78.29
2017-09-16T02:31:15.749Z,78.30
2017-09-16T02:32:13.066Z,78.32
2017-09-16T02:33:10.378Z,78.34
2017-09-16T02:34:07.702Z,78.38
2017-09-16T02:35:04.990Z,78.38
2017-09-16T02:36:02.275Z,78.39
2017-09-16T02:36:59.605Z,78.42
2017-09-16T02:37:56.869Z,78.44
2017-09-16T02:38:54.169Z,78.45
2017-09-16T02:39:51.435Z,78.49
2017-09-16T02:40:48.778Z,78.52
2017-09-16T02:41:46.122Z,78.51
2017-09-16T02:42:43.491Z,78.52
2017-09-16T02:43:40.824Z,78.56
2017-09-16T02:44:38.161Z,78.56
2017-09-16T02:45:35.468Z,78.61
2017-09-16T02:46:32.767Z,78.61
2017-09-16T02:47:30.153Z,78.63
2017-09-16T02:48:27.478Z,78.66
2017-09-16T02:49:24.794Z,78.68
2017-09-16T02:50:22.115Z,78.69
2017-09-16T02:51:19.430Z,78.72
2017-09-16T02:52:16.767Z,78.75
2017-09-16T02:53:14.090Z,78.76
2017-09-16T02:54:11.364Z,78.81
2017-09-16T02:55:08.710Z,78.83
2017-09-16T02:56:06.053Z,78.84
2017-09-16T02:57:03.355Z,78.86
2017-09-16T02:58:02.683Z,78.88
2017-09-16T02:58:59.974Z,78.91
2017-09-16T02:59:57.327Z,78.92
2017-09-16T03:00:54.678Z,78.92
2017-09-16T03:01:51.991Z,78.94
2017-09-16T03:02:49.341Z,78.95
2017-09-16T03:03:46.702Z,78.97
2017-09-16T03:04:43.982Z,78.98
2017-09-16T03:05:41.289Z,78.99
2017-09-16T03:06:38.643Z,79.03
2017-09-16T03:07:35.991Z,79.04
2017-09-16T03:08:33.294Z,79.07
2017-09-16T03:09:30.609Z,79.10
2017-09-16T03:10:27.901Z,79.12
2017-09-16T03:11:25.231Z,79.12
2017-09-16T03:12:22.522Z,79.16
2017-09-16T03:13:19.825Z,79.19
2017-09-16T03:14:17.202Z,79.23
2017-09-16T03:15:14.502Z,79.22
2017-09-16T03:16:11.861Z,79.24
2017-09-16T03:17:09.186Z,79.27
2017-09-16T03:18:06.458Z,79.28
2017-09-16T03:19:03.781Z,79.29
2017-09-16T03:20:01.059Z,79.30
2017-09-16T03:20:58.351Z,79.33
2017-09-16T03:21:55.650Z,79.33
2017-09-16T03:22:52.985Z,79.35
2017-09-16T03:23:50.262Z,79.36
2017-09-16T03:24:47.697Z,79.39
2017-09-16T03:25:44.995Z,79.39
2017-09-16T03:26:42.317Z,79.42
2017-09-16T03:27:39.607Z,79.42
2017-09-16T03:28:36.907Z,79.43
2017-09-16T03:29:34.255Z,79.45
2017-09-16T03:30:31.600Z,79.46
2017-09-16T03:31:28.896Z,79.48
2017-09-16T03:32:26.305Z,79.49
2017-09-16T03:33:23.587Z,79.52
2017-09-16T03:34:20.938Z,79.52
2017-09-16T03:35:18.229Z,79.56
2017-09-16T03:36:15.549Z,79.56
2017-09-16T03:37:12.911Z,79.59
2017-09-16T03:38:10.246Z,79.60
2017-09-16T03:39:07.547Z,79.61
2017-09-16T03:40:04.919Z,79.64
2017-09-16T03:41:02.210Z,79.65
2017-09-16T03:41:59.553Z,79.67
2017-09-16T03:42:56.822Z,79.67
2017-09-16T03:43:54.122Z,79.67
2017-09-16T03:44:51.469Z,79.69
2017-09-16T03:45:48.798Z,79.69
2017-09-16T03:46:46.243Z,79.73
2017-09-16T03:47:43.555Z,79.76
2017-09-16T03:48:40.858Z,79.76
2017-09-16T03:49:38.159Z,79.77
2017-09-16T03:50:35.508Z,79.77
2017-09-16T03:51:32.911Z,79.79
2017-09-16T03:52:30.242Z,79.79
2017-09-16T03:53:27.661Z,79.80
2017-09-16T03:54:25.013Z,79.80
2017-09-16T03:55:22.342Z,79.80
2017-09-16T03:56:19.621Z,79.85
2017-09-16T03:57:17.018Z,79.85
2017-09-16T03:58:14.358Z,79.87
2017-09-16T03:59:11.706Z,79.89
2017-09-16T04:00:09.050Z,79.90
2017-09-16T04:01:06.342Z,79.91
2017-09-16T04:02:03.645Z,79.91
2017-09-16T04:03:00.925Z,79.93
2017-09-16T04:03:58.254Z,79.95
2017-09-16T04:04:55.563Z,79.97
2017-09-16T04:05:52.857Z,79.97
2017-09-16T04:06:50.230Z,79.98
2017-09-16T04:07:47.490Z,79.98
2017-09-16T04:08:44.826Z,79.99
2017-09-16T04:09:42.128Z,79.98
2017-09-16T04:10:39.445Z,79.97
2017-09-16T04:11:36.802Z,80.00
2017-09-16T04:12:34.153Z,80.01
2017-09-16T04:13:31.431Z,80.03
2017-09-16T04:14:28.796Z,80.05
2017-09-16T04:15:26.210Z,80.06
2017-09-16T04:16:23.495Z,80.06
2017-09-16T04:17:20.882Z,80.07
2017-09-16T04:18:18.203Z,80.08
2017-09-16T04:19:15.557Z,80.12
2017-09-16T04:20:12.866Z,80.11
2017-09-16T04:21:10.148Z,80.12
2017-09-16T04:22:07.534Z,80.16
2017-09-16T04:23:04.794Z,80.15
2017-09-16T04:24:04.182Z,80.16
2017-09-16T04:25:01.509Z,80.19
2017-09-16T04:25:58.913Z,80.19
2017-09-16T04:26:56.254Z,80.21
2017-09-16T04:27:53.664Z,80.21
2017-09-16T04:28:51.008Z,80.22
2017-09-16T04:29:48.370Z,80.23
2017-09-16T04:30:45.658Z,80.23
2017-09-16T04:31:42.977Z,80.24
2017-09-16T04:32:40.305Z,80.23
2017-09-16T04:33:37.655Z,80.24
2017-09-16T04:34:34.921Z,80.28
2017-09-16T04:35:32.199Z,80.26
2017-09-16T04:36:29.478Z,80.29
2017-09-16T04:37:26.825Z,80.28
2017-09-16T04:38:24.146Z,80.32
2017-09-16T04:39:21.504Z,80.33
2017-09-16T04:40:18.797Z,80.33
2017-09-16T04:41:16.070Z,80.34
2017-09-16T04:42:13.384Z,80.35
2017-09-16T04:43:10.721Z,80.36
2017-09-16T04:44:08.382Z,80.36
2017-09-16T04:45:05.648Z,80.37
2017-09-16T04:46:02.921Z,80.36
2017-09-16T04:47:00.248Z,80.38
2017-09-16T04:47:57.577Z,80.38
2017-09-16T04:48:54.932Z,80.40
2017-09-16T04:49:52.209Z,80.41
2017-09-16T04:50:49.591Z,80.42
2017-09-16T04:51:46.887Z,80.42
2017-09-16T04:52:44.230Z,80.42
2017-09-16T04:53:41.509Z,80.43
2017-09-16T04:54:38.898Z,80.44
2017-09-16T04:55:36.233Z,80.43
2017-09-16T04:56:33.545Z,80.44
2017-09-16T04:57:30.870Z,80.45
2017-09-16T04:58:28.183Z,80.48
2017-09-16T04:59:25.509Z,80.48
2017-09-16T05:00:22.867Z,80.51
2017-09-16T05:01:20.262Z,80.53
2017-09-16T05:02:17.581Z,80.53
2017-09-16T05:03:14.878Z,80.54
2017-09-16T05:04:12.250Z,80.52
2017-09-16T05:05:09.611Z,80.52
2017-09-16T05:06:07.021Z,80.54
2017-09-16T05:07:05.265Z,80.54
2017-09-16T05:08:02.713Z,80.56
2017-09-16T05:08:59.990Z,80.56
2017-09-16T05:09:57.310Z,80.56
2017-09-16T05:10:54.621Z,80.57
2017-09-16T05:11:51.934Z,80.58
2017-09-16T05:12:49.277Z,80.59
2017-09-16T05:13:46.610Z,80.60
2017-09-16T05:14:43.896Z,80.60
2017-09-16T05:15:41.692Z,80.62
2017-09-16T05:16:39.489Z,80.61
2017-09-16T05:17:36.817Z,80.61
2017-09-16T05:18:34.090Z,80.61
2017-09-16T05:19:31.402Z,80.58
2017-09-16T05:20:28.667Z,80.56
2017-09-16T05:21:25.974Z,80.56
2017-09-16T05:22:23.294Z,80.55
2017-09-16T05:23:20.637Z,80.57
2017-09-16T05:24:17.946Z,80.58
2017-09-16T05:25:20.295Z,80.62
2017-09-16T05:26:17.592Z,80.64
2017-09-16T05:27:14.874Z,80.67
2017-09-16T05:28:12.248Z,80.68
2017-09-16T05:29:09.529Z,80.70
2017-09-16T05:30:06.896Z,80.69
2017-09-16T05:31:04.287Z,80.70
2017-09-16T05:32:01.585Z,80.71
2017-09-16T05:32:58.913Z,80.71
2017-09-16T05:33:56.267Z,80.73
2017-09-16T05:34:53.591Z,80.77
2017-09-16T05:35:50.912Z,80.75
2017-09-16T05:36:48.239Z,80.77
2017-09-16T05:37:45.644Z,80.80
2017-09-16T05:38:43.043Z,80.82
2017-09-16T05:39:40.390Z,80.81
2017-09-16T05:40:37.693Z,80.82
2017-09-16T05:41:35.043Z,80.81
2017-09-16T05:42:32.338Z,80.81
2017-09-16T05:43:29.653Z,80.83
2017-09-16T05:44:26.990Z,80.83
2017-09-16T05:45:24.281Z,80.78
2017-09-16T05:46:21.610Z,80.74
2017-09-16T05:47:18.935Z,80.73
2017-09-16T05:48:16.237Z,80.71
2017-09-16T05:49:13.533Z,80.68
2017-09-16T05:50:10.820Z,80.67
2017-09-16T05:51:08.212Z,80.63
2017-09-16T05:52:05.506Z,80.63
2017-09-16T05:53:03.150Z,80.63
2017-09-16T05:54:00.450Z,80.63
2017-09-16T05:54:57.777Z,80.64
2017-09-16T05:55:55.155Z,80.66
2017-09-16T05:56:52.458Z,80.68
2017-09-16T05:57:49.847Z,80.70
2017-09-16T05:58:47.410Z,80.75
2017-09-16T05:59:44.813Z,80.79
2017-09-16T06:00:42.157Z,80.80
2017-09-16T06:01:39.506Z,80.82
2017-09-16T06:02:36.833Z,80.86
2017-09-16T06:03:34.166Z,80.87
2017-09-16T06:04:31.566Z,80.93
2017-09-16T06:05:28.829Z,80.95
2017-09-16T06:06:26.160Z,80.96
2017-09-16T06:07:23.498Z,80.96
2017-09-16T06:08:20.946Z,81.00
2017-09-16T06:09:18.298Z,81.01
2017-09-16T06:10:15.667Z,81.01
2017-09-16T06:11:13.118Z,81.03
2017-09-16T06:12:10.822Z,81.06
2017-09-16T06:13:08.195Z,81.06
2017-09-16T06:14:05.754Z,81.09
2017-09-16T06:15:03.338Z,81.10
2017-09-16T06:16:00.668Z,81.10
2017-09-16T06:16:57.994Z,81.07
2017-09-16T06:17:55.449Z,81.07
2017-09-16T06:18:52.849Z,81.08
2017-09-16T06:19:50.189Z,81.11
2017-09-16T06:20:47.550Z,81.13
2017-09-16T06:21:45.006Z,81.15
2017-09-16T06:22:42.270Z,81.17
2017-09-16T06:23:39.617Z,81.17
2017-09-16T06:24:36.994Z,81.17
2017-09-16T06:25:34.427Z,81.15
2017-09-16T06:26:31.800Z,81.18
2017-09-16T06:27:29.206Z,81.19
2017-09-16T06:28:26.520Z,81.24
2017-09-16T06:29:23.943Z,81.25
2017-09-16T06:30:21.405Z,81.27
2017-09-16T06:31:18.733Z,81.26
2017-09-16T06:32:16.014Z,81.26
2017-09-16T06:33:15.360Z,81.28
2017-09-16T06:34:12.640Z,81.29
2017-09-16T06:35:10.422Z,81.29
2017-09-16T06:36:07.894Z,81.29
2017-09-16T06:37:05.217Z,81.28
2017-09-16T06:38:02.489Z,81.29
2017-09-16T06:38:59.961Z,81.29
2017-09-16T06:39:57.579Z,81.32
2017-09-16T06:40:54.854Z,81.32
2017-09-16T06:41:52.164Z,81.37
2017-09-16T06:42:51.528Z,81.38
2017-09-16T06:43:48.841Z,81.41
2017-09-16T06:44:46.133Z,81.42
2017-09-16T06:45:43.422Z,81.45
2017-09-16T06:46:40.738Z,81.45
2017-09-16T06:47:38.022Z,81.46
2017-09-16T06:48:35.338Z,81.47
2017-09-16T06:49:32.681Z,81.50
2017-09-16T06:50:30.095Z,81.47
2017-09-16T06:51:27.380Z,81.50
2017-09-16T06:52:24.677Z,81.51
2017-09-16T06:53:22.895Z,81.54
2017-09-16T06:54:22.981Z,81.54
2017-09-16T06:55:20.304Z,81.56
2017-09-16T06:56:17.650Z,81.56
2017-09-16T06:57:14.922Z,81.59
2017-09-16T06:58:12.213Z,81.54
2017-09-16T06:59:09.762Z,81.57
2017-09-16T07:00:07.031Z,81.55
2017-09-16T07:01:04.336Z,81.59
2017-09-16T07:02:01.700Z,81.60
2017-09-16T07:02:59.189Z,81.59
2017-09-16T07:03:56.586Z,81.60
2017-09-16T07:04:54.063Z,81.60
2017-09-16T07:05:51.690Z,81.60
2017-09-16T07:06:49.050Z,81.61
2017-09-16T07:07:46.446Z,81.63
2017-09-16T07:08:43.941Z,81.62
2017-09-16T07:09:41.564Z,81.63
2017-09-16T07:10:38.849Z,81.63
2017-09-16T07:11:36.522Z,81.67
2017-09-16T07:12:33.832Z,81.68
2017-09-16T07:13:31.141Z,81.68
2017-09-16T07:14:28.490Z,81.71
2017-09-16T07:15:25.929Z,81.73
2017-09-16T07:16:23.179Z,81.72
2017-09-16T07:17:21.167Z,81.73
2017-09-16T07:18:18.478Z,81.74
2017-09-16T07:19:15.953Z,81.74
2017-09-16T07:20:13.197Z,81.77
2017-09-16T07:21:10.598Z,81.78
2017-09-16T07:22:07.986Z,81.79
2017-09-16T07:23:05.273Z,81.79
2017-09-16T07:24:02.558Z,81.81
2017-09-16T07:24:59.836Z,81.80
2017-09-16T07:25:57.086Z,81.79
2017-09-16T07:26:54.366Z,81.79
2017-09-16T07:27:51.600Z,81.79
2017-09-16T07:28:48.895Z,81.80
2017-09-16T07:29:46.150Z,81.81
2017-09-16T07:30:43.435Z,81.83
2017-09-16T07:31:40.674Z,81.85
2017-09-16T07:32:38.016Z,81.84
2017-09-16T07:33:35.543Z,81.85
2017-09-16T07:34:33.846Z,81.82
2017-09-16T07:35:31.085Z,81.85
2017-09-16T07:36:28.467Z,81.87
2017-09-16T07:37:25.763Z,81.89
2017-09-16T07:38:23.054Z,81.91
2017-09-16T07:39:20.344Z,81.93
2017-09-16T07:40:17.693Z,81.92
2017-09-16T07:41:14.987Z,81.95
2017-09-16T07:42:14.363Z,81.94
2017-09-16T07:43:11.662Z,81.93
2017-09-16T07:44:08.946Z,81.92
2017-09-16T07:45:06.245Z,81.95
2017-09-16T07:46:03.561Z,81.88
2017-09-16T07:47:00.853Z,81.92
2017-09-16T07:47:58.152Z,81.95
2017-09-16T07:48:55.421Z,81.95
2017-09-16T07:49:52.947Z,81.97
2017-09-16T07:50:50.203Z,81.97
2017-09-16T07:51:47.509Z,81.98
2017-09-16T07:52:44.827Z,81.97
2017-09-16T07:53:42.137Z,82.01
2017-09-16T07:54:39.449Z,82.03
2017-09-16T07:55:36.734Z,82.04
2017-09-16T07:56:34.094Z,82.04
2017-09-16T07:57:31.433Z,82.02
2017-09-16T07:58:28.703Z,82.02
2017-09-16T07:59:26.010Z,82.05
2017-09-16T08:00:23.299Z,82.02
2017-09-16T08:01:20.594Z,82.04
2017-09-16T08:02:17.867Z,82.07
2017-09-16T08:03:15.215Z,82.09
2017-09-16T08:04:12.474Z,82.10
2017-09-16T08:05:10.006Z,82.10
2017-09-16T08:06:07.270Z,82.10
2017-09-16T08:07:04.601Z,82.12
2017-09-16T08:08:01.935Z,82.15
2017-09-16T08:08:59.209Z,82.14
2017-09-16T08:09:56.504Z,82.12
2017-09-16T08:10:53.810Z,82.16
2017-09-16T08:11:51.074Z,82.15
2017-09-16T08:12:48.357Z,82.18
2017-09-16T08:13:45.658Z,82.17
2017-09-16T08:14:44.996Z,82.21
2017-09-16T08:15:42.241Z,82.21
2017-09-16T08:16:39.508Z,82.23
2017-09-16T08:17:36.779Z,82.23
2017-09-16T08:18:34.086Z,82.24
2017-09-16T08:19:31.347Z,82.27
2017-09-16T08:20:28.671Z,82.27
2017-09-16T08:21:25.954Z,82.28
2017-09-16T08:22:23.249Z,82.29
2017-09-16T08:23:20.504Z,82.28
2017-09-16T08:24:17.775Z,82.29
2017-09-16T08:25:15.044Z,82.29
2017-09-16T08:26:12.347Z,82.29
2017-09-16T08:27:09.596Z,82.29
2017-09-16T08:28:06.924Z,82.29
2017-09-16T08:29:04.172Z,82.29
2017-09-16T08:30:01.473Z,82.30
2017-09-16T08:30:58.741Z,82.30
2017-09-16T08:31:56.209Z,82.33
2017-09-16T08:32:53.649Z,82.38
2017-09-16T08:33:50.945Z,82.39
2017-09-16T08:34:48.202Z,82.41
2017-09-16T08:35:45.522Z,82.43
2017-09-16T08:36:42.794Z,82.44
2017-09-16T08:37:40.074Z,82.46
2017-09-16T08:38:37.349Z,82.47
2017-09-16T08:39:34.617Z,82.52
2017-09-16T08:40:31.901Z,82.53
2017-09-16T08:41:29.210Z,82.54
2017-09-16T08:42:26.466Z,82.56
2017-09-16T08:43:23.747Z,82.58
2017-09-16T08:44:22.106Z,82.58
2017-09-16T08:45:19.442Z,82.60
2017-09-16T08:46:16.707Z,82.59
2017-09-16T08:47:13.979Z,82.58
2017-09-16T08:48:11.227Z,82.56
2017-09-16T08:49:08.511Z,82.58
2017-09-16T08:50:05.802Z,82.58
2017-09-16T08:51:03.069Z,82.58
2017-09-16T08:52:00.316Z,82.62
2017-09-16T08:52:57.599Z,82.62
2017-09-16T08:53:54.853Z,82.62
2017-09-16T08:54:52.130Z,82.64
2017-09-16T08:55:49.416Z,82.63
2017-09-16T08:56:46.712Z,82.65
2017-09-16T08:57:43.974Z,82.68
2017-09-16T08:58:41.253Z,82.67
2017-09-16T08:59:38.512Z,82.69
2017-09-16T09:00:35.818Z,82.72
2017-09-16T09:01:33.052Z,82.75
2017-09-16T09:02:30.334Z,82.78
2017-09-16T09:03:27.589Z,82.80
2017-09-16T09:04:24.883Z,82.79
2017-09-16T09:05:22.173Z,82.81
2017-09-16T09:06:19.446Z,82.82
2017-09-16T09:07:16.678Z,82.83
2017-09-16T09:08:13.955Z,82.82
2017-09-16T09:09:11.214Z,82.84
2017-09-16T09:10:08.488Z,82.85
2017-09-16T09:11:05.742Z,82.89
2017-09-16T09:12:03.013Z,82.89
2017-09-16T09:13:00.266Z,82.92
2017-09-16T09:13:57.584Z,82.93
2017-09-16T09:14:54.826Z,82.93
2017-09-16T09:15:52.125Z,82.93
2017-09-16T09:16:49.394Z,82.92
2017-09-16T09:17:46.654Z,82.90
2017-09-16T09:18:43.911Z,82.90
2017-09-16T09:19:41.185Z,82.89
2017-09-16T09:20:38.462Z,82.91
2017-09-16T09:21:35.736Z,82.91
2017-09-16T09:22:33.021Z,82.93
2017-09-16T09:23:30.291Z,82.97
2017-09-16T09:24:27.546Z,82.94
2017-09-16T09:25:24.831Z,82.97
2017-09-16T09:26:22.115Z,82.96
2017-09-16T09:27:19.397Z,82.98
2017-09-16T09:28:16.642Z,83.00
2017-09-16T09:29:13.917Z,82.99
2017-09-16T09:30:11.159Z,82.99
2017-09-16T09:31:08.437Z,82.99
2017-09-16T09:32:05.661Z,83.00
2017-09-16T09:33:02.953Z,83.02
2017-09-16T09:34:00.314Z,83.07
2017-09-16T09:34:57.570Z,83.08
2017-09-16T09:35:54.834Z,83.11
2017-09-16T09:36:54.156Z,83.12
2017-09-16T09:37:51.424Z,83.15
2017-09-16T09:38:48.737Z,83.17
2017-09-16T09:39:45.983Z,83.19
2017-09-16T09:40:43.281Z,83.21
2017-09-16T09:41:40.514Z,83.21
2017-09-16T09:42:37.798Z,83.22
2017-09-16T09:43:35.072Z,83.21
2017-09-16T09:44:32.342Z,83.20
2017-09-16T09:45:29.616Z,83.21
2017-09-16T09:46:26.917Z,83.21
2017-09-16T09:47:24.142Z,83.20
2017-09-16T09:48:21.389Z,83.23
2017-09-16T09:49:18.642Z,83.25
2017-09-16T09:50:15.942Z,83.26
2017-09-16T09:51:13.209Z,83.27
2017-09-16T09:52:10.465Z,83.29
2017-09-16T09:53:07.724Z,83.33
2017-09-16T09:54:05.018Z,83.34
2017-09-16T09:55:02.325Z,83.34
2017-09-16T09:55:59.833Z,83.29
2017-09-16T09:56:57.078Z,83.29
2017-09-16T09:57:54.356Z,83.28
2017-09-16T09:58:51.637Z,83.28
2017-09-16T09:59:48.958Z,83.31
2017-09-16T10:00:46.199Z,83.33
2017-09-16T10:01:43.504Z,83.35
2017-09-16T10:02:40.777Z,83.37
2017-09-16T10:03:38.049Z,83.42
2017-09-16T10:04:35.356Z,83.44
2017-09-16T10:05:32.630Z,83.46
2017-09-16T10:06:29.907Z,83.49
2017-09-16T10:07:27.198Z,83.52
2017-09-16T10:08:24.454Z,83.53
2017-09-16T10:09:21.697Z,83.57
2017-09-16T10:10:19.071Z,83.58
2017-09-16T10:11:16.472Z,83.60
2017-09-16T10:12:13.786Z,83.63
2017-09-16T10:13:11.060Z,83.66
2017-09-16T10:14:08.350Z,83.67
2017-09-16T10:15:05.638Z,83.67
2017-09-16T10:16:03.649Z,83.69
2017-09-16T10:17:00.946Z,83.71
2017-09-16T10:17:58.214Z,83.73
2017-09-16T10:18:55.504Z,83.74
2017-09-16T10:19:52.910Z,83.76
2017-09-16T10:20:50.258Z,83.76
2017-09-16T10:21:47.537Z,83.75
2017-09-16T10:22:44.843Z,83.77
2017-09-16T10:23:42.120Z,83.75
2017-09-16T10:24:39.397Z,83.74
2017-09-16T10:25:36.645Z,83.79
2017-09-16T10:26:33.922Z,83.79
2017-09-16T10:27:31.149Z,83.81
2017-09-16T10:28:28.431Z,83.83
2017-09-16T10:29:25.706Z,83.83
2017-09-16T10:30:22.987Z,83.84
2017-09-16T10:31:20.233Z,83.86
2017-09-16T10:32:17.534Z,83.89
2017-09-16T10:33:14.801Z,83.89
2017-09-16T10:34:12.105Z,83.90
2017-09-16T10:35:09.350Z,83.92
2017-09-16T10:36:06.665Z,83.93
2017-09-16T10:37:03.978Z,83.95
2017-09-16T10:38:01.358Z,83.93
2017-09-16T10:38:58.621Z,83.94
2017-09-16T10:39:55.906Z,83.96
2017-09-16T10:40:53.179Z,83.96
2017-09-16T10:41:50.470Z,83.95
2017-09-16T10:42:47.765Z,83.98
2017-09-16T10:43:45.045Z,83.98
2017-09-16T10:44:42.298Z,84.00
2017-09-16T10:45:41.652Z,84.00
2017-09-16T10:46:39.215Z,84.00
2017-09-16T10:47:36.494Z,84.01
2017-09-16T10:48:33.889Z,84.01
2017-09-16T10:49:31.159Z,84.04
2017-09-16T10:50:28.405Z,84.05
2017-09-16T10:51:25.693Z,84.04
2017-09-16T10:52:22.984Z,84.03
2017-09-16T10:53:20.357Z,84.03
2017-09-16T10:54:17.634Z,84.04
2017-09-16T10:55:14.910Z,84.04
2017-09-16T10:56:12.322Z,84.03
2017-09-16T10:57:09.702Z,84.01
2017-09-16T10:58:06.973Z,84.02
2017-09-16T10:59:04.321Z,84.04
2017-09-16T11:00:01.678Z,84.05
2017-09-16T11:00:58.976Z,84.07
2017-09-16T11:01:56.323Z,84.09
2017-09-16T11:02:53.642Z,84.13
2017-09-16T11:03:50.926Z,84.14
2017-09-16T11:04:48.318Z,84.16
2017-09-16T11:05:45.591Z,84.17
2017-09-16T11:06:43.178Z,84.20
2017-09-16T11:07:40.478Z,84.19
2017-09-16T11:08:37.781Z,84.19
2017-09-16T11:09:35.037Z,84.19
2017-09-16T11:10:32.302Z,84.24
2017-09-16T11:11:29.542Z,84.25
2017-09-16T11:12:26.848Z,84.24
2017-09-16T11:13:24.109Z,84.25
2017-09-16T11:14:21.425Z,84.26
2017-09-16T11:15:18.849Z,84.28
2017-09-16T11:16:16.138Z,84.29
2017-09-16T11:17:13.382Z,84.27
2017-09-16T11:18:10.666Z,84.28
2017-09-16T11:19:08.024Z,84.30
2017-09-16T11:20:05.922Z,84.32
2017-09-16T11:21:03.275Z,84.34
2017-09-16T11:22:00.591Z,84.37
2017-09-16T11:22:57.902Z,84.34
2017-09-16T11:23:55.173Z,84.33
2017-09-16T11:24:52.485Z,84.35
2017-09-16T11:25:49.785Z,84.33
2017-09-16T11:26:47.033Z,84.30
2017-09-16T11:27:44.423Z,84.32
2017-09-16T11:28:41.720Z,84.29
2017-09-16T11:29:38.996Z,84.30
2017-09-16T11:30:36.245Z,84.21
2017-09-16T11:31:33.517Z,84.18
2017-09-16T11:32:30.794Z,84.18
2017-09-16T11:33:28.073Z,84.20
2017-09-16T11:34:25.337Z,84.15
2017-09-16T11:35:22.744Z,84.12
2017-09-16T11:36:20.045Z,84.09
2017-09-16T11:37:17.330Z,84.11
2017-09-16T11:38:14.617Z,84.11
2017-09-16T11:39:11.901Z,84.06
2017-09-16T11:40:09.151Z,84.00
2017-09-16T11:41:06.495Z,83.96
2017-09-16T11:42:03.765Z,83.91
2017-09-16T11:43:01.052Z,83.89
2017-09-16T11:43:58.287Z,83.91
2017-09-16T11:44:55.571Z,83.88
2017-09-16T11:45:52.851Z,83.85
2017-09-16T11:46:50.156Z,83.83
2017-09-16T11:47:47.443Z,83.82
2017-09-16T11:48:44.714Z,83.77
2017-09-16T11:49:41.970Z,83.71
2017-09-16T11:50:39.252Z,83.68
2017-09-16T11:51:36.486Z,83.64
2017-09-16T11:52:33.801Z,83.64
2017-09-16T11:53:31.021Z,83.64
2017-09-16T11:54:28.292Z,83.59
2017-09-16T11:55:25.654Z,83.54
2017-09-16T11:56:22.958Z,83.52
2017-09-16T11:57:20.292Z,83.48
2017-09-16T11:58:17.602Z,83.47
2017-09-16T11:59:14.849Z,83.45
2017-09-16T12:00:12.144Z,83.45
2017-09-16T12:01:09.435Z,83.44
2017-09-16T12:02:06.730Z,83.45
2017-09-16T12:03:04.001Z,83.39
2017-09-16T12:04:01.294Z,83.38
2017-09-16T12:04:58.736Z,83.36
2017-09-16T12:05:56.075Z,83.31
2017-09-16T12:06:53.424Z,83.29
2017-09-16T12:07:52.868Z,83.25
2017-09-16T12:08:50.160Z,83.18
2017-09-16T12:09:47.463Z,83.12
2017-09-16T12:10:44.753Z,83.12
2017-09-16T12:11:42.826Z,83.10
2017-09-16T12:12:40.142Z,83.08
2017-09-16T12:13:37.405Z,83.00
2017-09-16T12:14:34.638Z,82.96
2017-09-16T12:15:31.930Z,82.92
2017-09-16T12:16:29.163Z,82.90
2017-09-16T12:17:26.437Z,82.89
2017-09-16T12:18:23.727Z,82.87